createdAt,value
2023-01-23T00:00:04.694Z,9.30
2023-01-23T00:02:59.023Z,9.57
2023-01-23T00:05:47.780Z,8.93
2023-01-23T00:08:36.017Z,9.50
2023-01-23T00:11:24.775Z,9.70
2023-01-23T00:14:12.121Z,9.67
2023-01-23T00:16:59.387Z,9.60
2023-01-23T00:19:47.049Z,9.13
2023-01-23T00:22:35.790Z,10.60
2023-01-23T00:25:22.917Z,9.27
2023-01-23T00:28:10.371Z,10.37
2023-01-23T00:31:04.685Z,11.20
2023-01-23T00:33:56.257Z,9.93
2023-01-23T00:36:44.933Z,10.53
2023-01-23T00:39:33.347Z,9.60
2023-01-23T00:42:20.315Z,9.80
2023-01-23T00:45:08.925Z,9.73
2023-01-23T00:47:56.179Z,9.43
2023-01-23T00:50:43.681Z,9.73
2023-01-23T00:53:31.236Z,10.27
2023-01-23T00:56:20.284Z,9.07
2023-01-23T00:59:08.075Z,10.43
2023-01-23T01:01:55.195Z,10.03
2023-01-23T01:04:42.592Z,10.07
2023-01-23T01:07:30.191Z,10.93
2023-01-23T01:10:18.023Z,10.67
2023-01-23T01:13:06.901Z,9.53
2023-01-23T01:15:54.402Z,10.03
2023-01-23T01:18:42.096Z,9.90
2023-01-23T01:21:30.212Z,10.30
2023-01-23T01:24:17.178Z,10.77
2023-01-23T01:27:04.792Z,9.70
2023-01-23T01:29:53.594Z,9.53
2023-01-23T01:32:42.420Z,10.60
2023-01-23T01:35:29.564Z,9.37
2023-01-23T01:38:17.193Z,10.23
2023-01-23T01:41:04.628Z,9.33
2023-01-23T01:43:53.299Z,9.77
2023-01-23T01:46:42.075Z,9.53
2023-01-23T01:49:33.402Z,11.40
2023-01-23T01:52:23.224Z,11.03
2023-01-23T01:55:11.771Z,9.10
2023-01-23T01:58:00.511Z,10.20
2023-01-23T02:00:47.890Z,11.03
2023-01-23T02:03:37.162Z,9.53
2023-01-23T02:06:24.792Z,9.77
2023-01-23T02:09:18.441Z,9.87
2023-01-23T02:12:07.095Z,10.93
2023-01-23T02:14:54.992Z,10.13
2023-01-23T02:17:43.409Z,10.60
2023-01-23T02:20:32.369Z,11.50
2023-01-23T02:23:32.043Z,10.23
2023-01-23T02:26:23.120Z,10.90
2023-01-23T02:29:11.093Z,11.60
2023-01-23T02:32:06.075Z,10.87
2023-01-23T02:34:56.563Z,11.20
2023-01-23T02:37:46.913Z,10.53
2023-01-23T02:40:36.449Z,11.10
2023-01-23T02:43:34.651Z,12.07
2023-01-23T02:46:25.959Z,10.47
2023-01-23T02:49:13.518Z,12.00
2023-01-23T02:52:01.067Z,10.53
2023-01-23T02:54:48.569Z,11.00
2023-01-23T02:57:36.074Z,11.67
2023-01-23T03:00:24.186Z,12.40
2023-01-23T03:03:11.346Z,11.30
2023-01-23T03:06:03.173Z,12.23
2023-01-23T03:08:51.127Z,11.40
2023-01-23T03:11:40.623Z,11.40
2023-01-23T03:14:28.165Z,12.23
2023-01-23T03:17:16.918Z,12.00
2023-01-23T03:20:05.945Z,12.20
2023-01-23T03:22:53.355Z,12.70
2023-01-23T03:25:44.714Z,11.50
2023-01-23T03:28:50.123Z,9.67
2023-01-23T03:31:38.383Z,12.37
2023-01-23T03:34:27.674Z,12.50
2023-01-23T03:37:17.500Z,13.57
2023-01-23T03:40:24.615Z,12.40
2023-01-23T03:43:11.988Z,12.20
2023-01-23T03:46:04.747Z,12.80
2023-01-23T03:48:53.134Z,13.20
2023-01-23T03:51:41.926Z,12.27
2023-01-23T03:54:30.094Z,12.60
2023-01-23T03:57:17.551Z,10.47
2023-01-23T04:00:22.066Z,11.47
2023-01-23T04:03:16.416Z,11.97
2023-01-23T04:06:03.939Z,11.00
2023-01-23T04:08:52.532Z,11.20
2023-01-23T04:11:39.759Z,11.93
2023-01-23T04:14:30.469Z,12.47
2023-01-23T04:17:17.835Z,11.00
2023-01-23T04:20:06.465Z,11.47
2023-01-23T04:22:53.842Z,11.57
2023-01-23T04:25:42.583Z,12.37
2023-01-23T04:28:34.430Z,12.83
2023-01-23T04:31:22.012Z,12.00
2023-01-23T04:34:10.016Z,12.23
2023-01-23T04:36:59.448Z,12.40
2023-01-23T04:39:46.656Z,11.07
2023-01-23T04:42:35.712Z,11.83
2023-01-23T04:45:27.641Z,11.37
2023-01-23T04:48:44.195Z,11.73
2023-01-23T04:51:32.505Z,12.53
2023-01-23T04:54:21.033Z,12.13
2023-01-23T04:57:08.528Z,10.70
2023-01-23T04:59:58.858Z,12.37
2023-01-23T05:02:47.946Z,11.90
2023-01-23T05:05:36.324Z,12.93
2023-01-23T05:08:23.627Z,11.23
2023-01-23T05:11:23.043Z,12.63
2023-01-23T05:14:10.720Z,12.53
2023-01-23T05:16:59.433Z,10.77
2023-01-23T05:19:52.239Z,12.07
2023-01-23T05:22:52.026Z,12.63
2023-01-23T05:25:40.934Z,11.87
2023-01-23T05:28:28.571Z,12.13
2023-01-23T05:31:16.715Z,12.10
2023-01-23T05:34:19.408Z,12.43
2023-01-23T05:37:07.057Z,11.30
2023-01-23T05:39:57.882Z,11.30
2023-01-23T05:42:48.753Z,11.43
2023-01-23T05:45:54.872Z,10.23
2023-01-23T05:48:51.517Z,12.70
2023-01-23T05:51:42.140Z,12.43
2023-01-23T05:54:29.274Z,13.13
2023-01-23T05:57:16.766Z,13.13
2023-01-23T06:00:16.012Z,12.50
2023-01-23T06:03:06.489Z,12.63
2023-01-23T06:06:12.687Z,11.20
2023-01-23T06:09:01.782Z,12.33
2023-01-23T06:11:50.141Z,10.60
2023-01-23T06:14:37.705Z,13.60
2023-01-23T06:17:26.264Z,13.27
2023-01-23T06:20:14.533Z,13.23
2023-01-23T06:23:05.132Z,13.17
2023-01-23T06:25:54.288Z,14.17
2023-01-23T06:28:41.886Z,13.07
2023-01-23T06:31:32.475Z,11.67
2023-01-23T06:34:21.240Z,11.40
2023-01-23T06:37:16.853Z,12.60
2023-01-23T06:40:06.839Z,11.43
2023-01-23T06:42:57.602Z,12.77
2023-01-23T06:45:45.678Z,12.53
2023-01-23T06:48:33.231Z,10.40
2023-01-23T06:51:20.679Z,13.63
2023-01-23T06:54:09.079Z,12.47
2023-01-23T06:56:56.603Z,11.53
2023-01-23T06:59:45.093Z,12.23
2023-01-23T07:02:34.831Z,12.77
2023-01-23T07:05:22.325Z,12.03
2023-01-23T07:08:10.151Z,11.67
2023-01-23T07:10:57.322Z,12.53
2023-01-23T07:13:44.755Z,12.33
2023-01-23T07:16:35.896Z,12.03
2023-01-23T07:19:23.176Z,11.30
2023-01-23T07:22:10.627Z,11.60
2023-01-23T07:24:57.789Z,12.23
2023-01-23T07:27:45.133Z,11.37
2023-01-23T07:30:32.651Z,11.63
2023-01-23T07:33:21.495Z,11.87
2023-01-23T07:36:09.753Z,12.13
2023-01-23T07:38:58.941Z,11.43
2023-01-23T07:41:46.634Z,12.20
2023-01-23T07:44:34.861Z,12.27
2023-01-23T07:47:22.083Z,11.80
2023-01-23T07:50:13.773Z,12.03
2023-01-23T07:53:01.023Z,12.27
2023-01-23T07:55:48.620Z,11.33
2023-01-23T07:58:36.344Z,11.40
2023-01-23T08:01:23.714Z,12.17
2023-01-23T08:04:11.212Z,12.17
2023-01-23T08:07:00.256Z,12.53
2023-01-23T08:09:47.563Z,10.90
2023-01-23T08:12:34.948Z,12.10
2023-01-23T08:15:22.600Z,9.63
2023-01-23T08:18:10.102Z,10.83
2023-01-23T08:25:26.423Z,12.23
2023-01-23T08:28:13.425Z,12.40
2023-01-23T08:31:02.051Z,12.47
2023-01-23T08:33:49.773Z,12.10
2023-01-23T08:36:37.302Z,10.80
2023-01-23T08:39:25.318Z,11.60
2023-01-23T08:42:14.021Z,11.40
2023-01-23T08:50:18.684Z,12.13
2023-01-23T08:53:06.090Z,12.07
2023-01-23T08:55:53.722Z,12.13
2023-01-23T08:58:42.544Z,12.40
2023-01-23T09:01:29.907Z,11.93
2023-01-23T09:04:18.715Z,12.47
2023-01-23T09:07:05.826Z,12.30
2023-01-23T09:09:54.883Z,11.77
2023-01-23T09:12:43.190Z,11.10
2023-01-23T09:15:32.201Z,11.83
2023-01-23T09:18:22.115Z,12.63
2023-01-23T09:21:11.338Z,11.53
2023-01-23T09:23:58.363Z,13.40
2023-01-23T09:26:45.964Z,13.50
2023-01-23T09:29:33.512Z,12.13
2023-01-23T09:32:21.965Z,11.57
2023-01-23T09:35:10.387Z,12.13
2023-01-23T09:38:06.726Z,12.30
2023-01-23T09:40:57.238Z,12.47
2023-01-23T09:43:50.788Z,12.37
2023-01-23T09:46:42.099Z,12.30
2023-01-23T09:49:41.086Z,12.37
2023-01-23T09:52:33.036Z,12.80
2023-01-23T09:55:25.930Z,11.90
2023-01-23T09:58:19.973Z,12.37
2023-01-23T10:01:11.315Z,11.53
2023-01-23T10:03:59.544Z,11.93
2023-01-23T10:07:14.758Z,11.57
2023-01-23T10:10:22.835Z,11.10
2023-01-23T10:13:16.617Z,12.13
2023-01-23T10:16:50.932Z,11.70
2023-01-23T10:20:03.802Z,12.57
2023-01-23T10:23:05.717Z,11.53
2023-01-23T10:25:54.017Z,11.93
2023-01-23T10:28:43.119Z,12.40
2023-01-23T10:31:38.538Z,12.37
2023-01-23T10:34:34.827Z,11.47
2023-01-23T10:37:32.475Z,11.23
2023-01-23T10:40:44.204Z,12.33
2023-01-23T10:43:31.767Z,12.17
2023-01-23T10:46:21.741Z,11.13
2023-01-23T10:49:09.000Z,12.07
2023-01-23T10:51:56.608Z,11.73
2023-01-23T10:54:47.868Z,11.87
2023-01-23T10:57:48.385Z,10.70
2023-01-23T11:00:38.320Z,10.40
2023-01-23T11:03:32.404Z,10.60
2023-01-23T11:06:25.794Z,11.57
2023-01-23T11:09:21.423Z,11.73
2023-01-23T11:12:17.438Z,10.87
2023-01-23T11:15:23.253Z,10.37
2023-01-23T11:18:36.731Z,11.70
2023-01-23T11:21:24.883Z,11.77
2023-01-23T11:24:27.582Z,11.70
2023-01-23T11:27:20.801Z,11.23
2023-01-23T11:30:39.558Z,11.47
2023-01-23T11:33:38.395Z,11.90
2023-01-23T11:36:38.447Z,12.10
2023-01-23T11:39:38.801Z,12.53
2023-01-23T11:42:28.749Z,11.30
2023-01-23T11:45:33.596Z,11.80
2023-01-23T11:48:27.065Z,12.60
2023-01-23T11:51:21.402Z,11.47
2023-01-23T11:54:28.848Z,11.83
2023-01-23T11:57:23.748Z,11.90
2023-01-23T12:00:25.614Z,10.90
2023-01-23T12:03:37.241Z,10.20
2023-01-23T12:06:57.285Z,11.57
2023-01-23T12:09:57.442Z,11.13
2023-01-23T12:12:59.507Z,11.67
2023-01-23T12:16:01.550Z,10.37
2023-01-23T12:19:02.098Z,10.87
2023-01-23T12:21:58.706Z,11.30
2023-01-23T12:24:56.973Z,10.17
2023-01-23T12:27:45.894Z,10.00
2023-01-23T12:30:56.373Z,9.97
2023-01-23T12:33:58.247Z,9.67
2023-01-23T12:37:16.653Z,9.23
2023-01-23T12:40:14.586Z,9.30
2023-01-23T12:43:06.786Z,9.60
2023-01-23T12:46:00.473Z,8.37
2023-01-23T12:48:55.082Z,8.67
2023-01-23T12:51:46.857Z,8.93
2023-01-23T12:54:38.794Z,8.57
2023-01-23T12:57:59.505Z,8.07
2023-01-23T13:01:11.180Z,7.67
2023-01-23T13:04:08.846Z,7.97
2023-01-23T13:07:13.292Z,8.17
2023-01-23T13:10:22.842Z,7.80
2023-01-23T13:13:10.367Z,8.20
2023-01-23T13:16:10.456Z,8.50
2023-01-23T13:19:17.012Z,8.73
2023-01-23T13:22:06.844Z,7.80
2023-01-23T13:25:12.950Z,7.73
2023-01-23T13:28:43.936Z,9.17
2023-01-23T13:31:41.937Z,8.53
2023-01-23T13:34:38.086Z,7.97
2023-01-23T13:37:51.959Z,8.30
2023-01-23T13:40:59.093Z,7.50
2023-01-23T13:43:55.309Z,8.40
2023-01-23T14:22:29.050Z,7.80
2023-01-23T14:25:18.631Z,7.77
2023-01-23T14:28:07.211Z,8.40
2023-01-23T14:31:01.727Z,7.23
2023-01-23T14:33:50.816Z,7.43
2023-01-23T14:36:43.388Z,7.30
2023-01-23T14:39:33.239Z,7.90
2023-01-23T14:42:27.084Z,7.33
2023-01-23T14:45:15.488Z,8.20
2023-01-23T14:48:08.059Z,7.70
2023-01-23T14:51:06.018Z,7.70
2023-01-23T14:53:58.132Z,7.67
2023-01-23T14:56:46.746Z,6.83
2023-01-23T14:59:37.105Z,6.40
2023-01-23T15:02:28.156Z,7.00
2023-01-23T15:05:23.481Z,6.80
2023-01-23T15:08:22.028Z,7.17
2023-01-23T15:11:12.020Z,7.70
2023-01-23T15:14:02.235Z,6.33
2023-01-23T15:16:51.246Z,6.03
2023-01-23T15:19:39.726Z,6.97
2023-01-23T15:22:30.276Z,6.30
2023-01-23T15:25:29.244Z,7.27
2023-01-23T15:28:32.591Z,6.63
2023-01-23T15:31:29.456Z,6.70
2023-01-23T15:34:23.895Z,6.77
2023-01-23T15:37:24.055Z,6.50
2023-01-23T15:40:19.675Z,6.50
2023-01-23T15:43:11.590Z,6.50
2023-01-23T15:45:59.504Z,6.60
2023-01-23T15:48:46.515Z,6.60
2023-01-23T15:51:33.958Z,6.73
2023-01-23T15:54:25.500Z,7.23
2023-01-23T15:57:14.919Z,6.43
2023-01-23T16:00:02.269Z,6.40
2023-01-23T16:03:00.558Z,6.90
2023-01-23T16:05:47.775Z,6.00
2023-01-23T16:08:35.273Z,6.13
2023-01-23T16:11:22.774Z,5.67
2023-01-23T16:14:16.772Z,6.07
2023-01-23T16:17:15.979Z,6.40
2023-01-23T16:20:04.260Z,6.33
2023-01-23T16:22:53.921Z,6.83
2023-01-23T16:25:44.921Z,6.20
2023-01-23T16:28:33.004Z,7.20
2023-01-23T16:31:22.987Z,7.20
2023-01-23T16:34:10.376Z,7.37
2023-01-23T16:37:00.708Z,6.77
2023-01-23T16:39:48.553Z,7.07
2023-01-23T16:42:35.860Z,7.00
2023-01-23T16:45:26.318Z,7.40
2023-01-23T16:48:25.426Z,7.67
2023-01-23T16:51:19.796Z,7.83
2023-01-23T16:54:18.357Z,7.37
2023-01-23T16:57:06.322Z,6.80
2023-01-23T16:59:56.268Z,7.87
2023-01-23T17:02:45.853Z,7.87
2023-01-23T17:05:34.613Z,7.37
2023-01-23T17:08:23.242Z,7.00
2023-01-23T17:11:19.375Z,7.60
2023-01-23T17:14:13.212Z,7.03
2023-01-23T17:17:06.077Z,7.10
2023-01-23T17:19:55.100Z,6.90
2023-01-23T17:22:44.759Z,6.17
2023-01-23T17:25:36.078Z,7.60
2023-01-23T17:28:26.372Z,7.70
2023-01-23T17:31:20.231Z,7.13
2023-01-23T17:34:11.389Z,7.37
2023-01-23T17:36:58.656Z,7.83
2023-01-23T17:39:47.234Z,8.43
2023-01-23T17:42:34.356Z,7.17
2023-01-23T17:45:24.410Z,7.80
2023-01-23T17:48:15.162Z,7.47
2023-01-23T17:51:02.694Z,7.77
2023-01-23T17:53:50.933Z,8.23
2023-01-23T17:56:39.354Z,6.93
2023-01-23T17:59:26.677Z,7.63
2023-01-23T18:02:24.955Z,7.40
2023-01-23T18:05:13.743Z,7.57
2023-01-23T18:08:01.020Z,7.47
2023-01-23T18:10:52.421Z,7.47
2023-01-23T18:13:51.550Z,8.47
2023-01-23T18:16:45.062Z,8.13
2023-01-23T18:19:33.129Z,7.27
2023-01-23T18:22:21.034Z,7.60
2023-01-23T18:25:14.001Z,8.23
2023-01-23T18:28:06.117Z,7.87
2023-01-23T18:31:03.543Z,7.47
2023-01-23T18:34:05.884Z,7.30
2023-01-23T18:37:03.668Z,7.27
2023-01-23T18:40:01.696Z,7.87
2023-01-23T18:42:56.413Z,8.23
2023-01-23T18:45:44.338Z,8.13
2023-01-23T18:48:35.846Z,7.83
2023-01-23T18:51:37.798Z,7.57
2023-01-23T18:54:32.054Z,7.60
2023-01-23T18:57:42.373Z,7.73
2023-01-23T19:00:36.999Z,7.83
2023-01-23T19:03:33.789Z,7.23
2023-01-23T19:06:24.774Z,7.83
2023-01-23T19:09:19.533Z,8.30
2023-01-23T19:12:24.916Z,7.43
2023-01-23T19:15:25.037Z,7.83
2023-01-23T19:18:39.093Z,7.23
2023-01-23T19:21:29.391Z,8.03
2023-01-23T19:24:19.994Z,6.93
2023-01-23T19:27:18.492Z,7.33
2023-01-23T19:30:07.028Z,7.63
2023-01-23T19:32:54.418Z,7.37
2023-01-23T19:35:41.724Z,7.13
2023-01-23T19:38:30.419Z,7.63
2023-01-23T19:41:20.640Z,8.07
2023-01-23T19:44:09.985Z,7.03
2023-01-23T19:46:57.860Z,7.40
2023-01-23T19:49:48.350Z,7.27
2023-01-23T19:52:35.659Z,7.03
2023-01-23T19:55:27.217Z,7.50
2023-01-23T19:58:14.319Z,7.43
2023-01-23T20:01:01.918Z,7.60
2023-01-23T20:03:49.533Z,7.77
2023-01-23T20:06:38.836Z,7.20
2023-01-23T20:09:26.475Z,7.03
2023-01-23T20:12:15.440Z,7.20
2023-01-23T20:15:02.635Z,6.73
2023-01-23T20:17:50.408Z,6.60
2023-01-23T20:20:37.960Z,10.20
2023-01-23T20:23:25.245Z,7.60
2023-01-23T20:26:12.962Z,6.13
2023-01-23T20:29:01.615Z,6.40
2023-01-23T20:31:48.916Z,6.90
2023-01-23T20:34:36.407Z,6.70
2023-01-23T20:37:23.440Z,7.00
2023-01-23T20:40:12.384Z,6.53
2023-01-23T20:42:59.772Z,6.80
2023-01-23T20:45:50.622Z,6.60
2023-01-23T20:48:39.415Z,6.23
2023-01-23T20:51:27.399Z,7.00
2023-01-23T20:54:14.600Z,6.43
2023-01-23T20:57:02.086Z,6.20
2023-01-23T20:59:48.639Z,6.70
2023-01-23T21:02:37.565Z,7.20
2023-01-23T21:05:24.632Z,6.20
2023-01-23T21:08:11.999Z,6.03
2023-01-23T21:10:59.403Z,5.77
2023-01-23T21:13:52.012Z,6.40
2023-01-23T21:16:39.138Z,6.83
2023-01-23T21:19:28.170Z,6.07
2023-01-23T21:22:15.629Z,6.23
2023-01-23T21:25:03.041Z,6.97
2023-01-23T21:27:50.377Z,5.87
2023-01-23T21:30:39.619Z,6.67
2023-01-23T21:33:26.989Z,7.10
2023-01-23T21:36:17.639Z,6.70
2023-01-23T21:39:23.237Z,6.03
2023-01-23T21:42:10.642Z,7.30
2023-01-23T21:44:58.228Z,6.63
2023-01-23T21:47:45.692Z,6.70
2023-01-23T21:50:32.992Z,6.60
2023-01-23T21:53:21.785Z,6.33
2023-01-23T21:56:10.098Z,6.23
2023-01-23T21:58:57.465Z,6.47
2023-01-23T22:01:45.169Z,7.23
2023-01-23T22:04:32.379Z,7.23
2023-01-23T22:07:19.707Z,8.13
2023-01-23T22:10:10.029Z,7.30
2023-01-23T22:12:57.482Z,7.47
2023-01-23T22:15:44.743Z,6.77
2023-01-23T22:18:33.531Z,6.17
2023-01-23T22:21:21.107Z,6.50
2023-01-23T22:24:08.992Z,6.90
2023-01-23T22:26:57.518Z,6.83
2023-01-23T22:29:45.017Z,6.83
2023-01-23T22:32:33.897Z,6.70
2023-01-23T22:35:21.552Z,6.63
2023-01-23T22:38:10.488Z,7.50
2023-01-23T22:40:58.960Z,7.23
2023-01-23T22:43:47.522Z,6.80
2023-01-23T22:46:35.073Z,7.10
2023-01-23T22:49:22.652Z,7.27
2023-01-23T22:52:09.888Z,7.20
2023-01-23T22:54:57.279Z,7.30
2023-01-23T22:57:44.740Z,7.73
2023-01-23T23:00:33.664Z,8.10
2023-01-23T23:03:21.557Z,7.83
2023-01-23T23:06:11.653Z,6.83
2023-01-23T23:08:59.039Z,7.40
2023-01-23T23:11:48.963Z,7.40
2023-01-23T23:14:37.574Z,8.10
2023-01-23T23:17:26.946Z,7.70
2023-01-23T23:20:14.802Z,7.93
2023-01-23T23:23:02.264Z,8.23
2023-01-23T23:25:54.194Z,7.90
2023-01-23T23:28:42.373Z,8.10
2023-01-23T23:31:30.009Z,8.73
2023-01-23T23:34:18.825Z,7.23
2023-01-23T23:37:06.110Z,7.93
2023-01-23T23:39:53.392Z,7.77
2023-01-23T23:42:41.427Z,7.60
2023-01-23T23:45:29.066Z,6.67
2023-01-23T23:48:16.374Z,7.77
2023-01-23T23:51:06.819Z,8.87
2023-01-23T23:53:55.521Z,8.27
2023-01-23T23:56:42.591Z,9.07
2023-01-23T23:59:30.127Z,8.37
